Time;durP1;ratioP1;P1;durP2;ratioP2;P2;SDS_P1;SDS_P2;PMS_P1;PMS_P2;Temp;Humidity;BMP_temperature;BMP_pressure;BME280_temperature;BME280_humidity;BME280_pressure;Samples;Min_cycle;Max_cycle;Signal;HPM_P1;HPM_P2
2024/04/16 00:02:20;;;;;;;10.93;1.48;;;8.30;99.90;;;;;;5461466;26;20458;-54
2024/04/16 00:04:45;;;;;;;11.07;1.10;;;8.30;99.90;;;;;;5489738;26;19998;-52
2024/04/16 00:07:11;;;;;;;2.22;1.27;;;8.40;99.90;;;;;;5490068;26;20002;-54
2024/04/16 00:09:36;;;;;;;8.07;1.38;;;8.40;99.90;;;;;;5490094;26;20009;-53
2024/04/16 00:12:02;;;;;;;11.80;1.30;;;8.40;99.90;;;;;;5489865;26;20334;-55
2024/04/16 00:14:28;;;;;;;3.78;0.93;;;8.40;99.90;;;;;;5489940;26;19998;-47
2024/04/16 00:16:53;;;;;;;10.98;1.20;;;8.40;99.90;;;;;;5490076;26;20007;-47
2024/04/16 00:19:19;;;;;;;6.57;1.10;;;8.40;99.90;;;;;;5485528;26;20461;-45
2024/04/16 00:21:45;;;;;;;6.63;1.30;;;8.40;99.90;;;;;;5489387;26;20323;-48
2024/04/16 00:24:10;;;;;;;15.30;1.30;;;8.40;99.90;;;;;;5489814;26;20320;-59
2024/04/16 00:26:36;;;;;;;7.55;1.38;;;8.40;99.90;;;;;;5490162;26;20026;-52
2024/04/16 00:29:02;;;;;;;5.75;2.58;;;8.40;99.90;;;;;;5489754;26;20177;-56
2024/04/16 00:31:27;;;;;;;5.32;0.88;;;8.30;99.90;;;;;;5489575;26;20334;-54
2024/04/16 00:33:53;;;;;;;7.82;1.23;;;8.20;99.90;;;;;;5489550;26;19998;-54
2024/04/16 00:36:19;;;;;;;5.28;0.93;;;8.30;99.90;;;;;;5489220;26;19999;-53
2024/04/16 00:38:44;;;;;;;8.18;1.45;;;8.30;99.90;;;;;;5489020;26;20392;-55
2024/04/16 00:41:10;;;;;;;5.78;1.00;;;8.30;99.90;;;;;;5486810;26;20072;-57
2024/04/16 00:43:35;;;;;;;5.47;1.10;;;8.30;99.90;;;;;;5489160;26;19998;-54
2024/04/16 00:46:02;;;;;;;7.57;0.90;;;8.20;99.90;;;;;;5489562;26;20515;-53
2024/04/16 00:48:28;;;;;;;7.70;1.67;;;8.20;99.90;;;;;;5489616;26;20502;-54
2024/04/16 00:50:56;;;;;;;7.88;1.17;;;8.20;99.90;;;;;;5457161;26;19994;-55
2024/04/16 00:53:23;;;;;;;3.13;1.20;;;8.20;99.90;;;;;;5488479;26;20469;-55
2024/04/16 00:55:50;;;;;;;8.63;1.03;;;8.20;99.90;;;;;;5456545;26;20005;-53
2024/04/16 00:58:18;;;;;;;7.05;1.38;;;8.20;99.90;;;;;;5487553;26;20362;-55
2024/04/16 01:00:45;;;;;;;2.45;1.00;;;8.20;99.90;;;;;;5489112;26;20106;-54
2024/04/16 01:03:11;;;;;;;11.93;0.85;;;8.20;99.90;;;;;;5486092;26;20036;-53
2024/04/16 01:05:38;;;;;;;4.55;0.73;;;8.20;99.90;;;;;;5488040;26;20061;-55
2024/04/16 01:08:07;;;;;;;6.53;0.67;;;8.10;99.90;;;;;;5489262;26;20005;-58
2024/04/16 01:10:41;;;;;;;6.72;0.57;;;8.10;99.90;;;;;;5487887;26;20015;-54
2024/04/16 01:13:07;;;;;;;11.63;1.20;;;8.00;99.90;;;;;;5487439;26;20507;-56
2024/04/16 01:15:32;;;;;;;4.25;0.65;;;8.00;99.90;;;;;;5489201;26;20049;-55
2024/04/16 01:17:59;;;;;;;2.58;0.73;;;7.90;99.90;;;;;;5489057;26;20066;-55
2024/04/16 01:20:25;;;;;;;2.15;0.70;;;7.90;99.90;;;;;;5488766;26;20466;-56
2024/04/16 01:22:51;;;;;;;11.43;1.67;;;8.00;99.90;;;;;;5488996;26;20449;-50
2024/04/16 01:25:18;;;;;;;4.45;0.90;;;8.00;99.90;;;;;;5489323;26;20066;-56
2024/04/16 01:27:43;;;;;;;4.80;0.75;;;8.00;99.90;;;;;;5480024;26;20006;-54
2024/04/16 01:30:09;;;;;;;4.55;0.80;;;8.00;99.90;;;;;;5452470;26;19999;-54
2024/04/16 01:32:35;;;;;;;5.75;0.73;;;8.00;99.90;;;;;;5452547;26;20003;-56
2024/04/16 01:35:01;;;;;;;9.07;1.00;;;8.00;99.90;;;;;;5452642;26;20072;-59
2024/04/16 01:37:27;;;;;;;6.60;0.80;;;7.90;99.90;;;;;;5452831;26;19999;-56
2024/04/16 01:39:52;;;;;;;2.22;0.03;;;7.40;99.90;;;;;;5452335;26;19999;-52
2024/04/16 01:42:18;;;;;;;3.35;0.30;;;7.10;99.90;;;;;;5450848;26;20156;-58
2024/04/16 01:44:51;;;;;;;0.63;0.10;;;6.80;99.90;;;;;;5486480;26;19994;-56
2024/04/16 01:47:16;;;;;;;0.88;0.55;;;6.70;99.90;;;;;;5488692;26;19994;-55
2024/04/16 01:49:42;;;;;;;1.30;0.32;;;6.50;99.90;;;;;;5488482;26;20008;-54
2024/04/16 01:52:08;;;;;;;4.13;0.22;;;6.50;99.90;;;;;;5488320;26;20647;-55
2024/04/16 01:54:33;;;;;;;0.70;0.13;;;6.50;99.90;;;;;;5470447;26;20061;-56
2024/04/16 01:56:59;;;;;;;3.63;1.02;;;6.50;99.90;;;;;;5454326;26;19991;-51
2024/04/16 01:59:25;;;;;;;1.55;0.88;;;6.50;99.90;;;;;;5453917;26;20071;-51
2024/04/16 02:01:50;;;;;;;3.45;0.38;;;6.60;99.90;;;;;;5480311;26;19995;-52
2024/04/16 02:04:16;;;;;;;0.93;0.73;;;6.60;99.90;;;;;;5452017;26;20526;-42
2024/04/16 02:06:42;;;;;;;2.90;0.50;;;6.60;99.90;;;;;;5451870;26;19991;-44
2024/04/16 02:09:07;;;;;;;1.95;0.70;;;6.60;99.90;;;;;;5451974;26;19999;-43
2024/04/16 02:11:33;;;;;;;3.42;0.63;;;6.60;99.90;;;;;;5451841;26;19995;-41
2024/04/16 02:13:58;;;;;;;1.75;0.50;;;6.60;99.90;;;;;;5451788;26;19991;-43
2024/04/16 02:16:25;;;;;;;4.00;0.73;;;6.60;99.90;;;;;;5453068;26;20447;-42
2024/04/16 02:18:50;;;;;;;1.02;0.40;;;6.50;99.90;;;;;;5486692;26;20445;-42
2024/04/16 02:21:16;;;;;;;6.85;1.15;;;6.50;99.90;;;;;;5486215;26;19994;-40
2024/04/16 02:23:42;;;;;;;0.82;0.82;;;6.50;99.90;;;;;;5487916;26;19998;-38
2024/04/16 02:26:08;;;;;;;2.10;0.60;;;6.40;99.90;;;;;;5487195;26;19990;-45
2024/04/16 02:28:33;;;;;;;4.20;1.08;;;6.40;99.90;;;;;;5487996;26;20004;-40
2024/04/16 02:30:59;;;;;;;2.10;0.63;;;6.40;99.90;;;;;;5487845;26;19990;-42
2024/04/16 02:33:25;;;;;;;2.35;0.30;;;6.40;99.90;;;;;;5487335;26;19998;-43
2024/04/16 02:35:51;;;;;;;2.22;0.20;;;6.40;99.90;;;;;;5477960;26;19991;-40
2024/04/16 02:38:16;;;;;;;0.98;0.13;;;6.40;99.90;;;;;;5486130;26;20002;-41
2024/04/16 02:40:44;;;;;;;0.52;0.43;;;6.40;99.90;;;;;;5485747;26;19990;-53
2024/04/16 02:43:10;;;;;;;3.92;0.30;;;6.40;99.90;;;;;;5487669;26;19994;-52
2024/04/16 02:45:36;;;;;;;2.67;0.30;;;6.50;99.90;;;;;;5487874;26;19994;-50
2024/04/16 02:48:02;;;;;;;3.45;0.55;;;6.50;99.90;;;;;;5487498;26;19994;-51
2024/04/16 02:50:28;;;;;;;3.92;0.45;;;6.50;99.90;;;;;;5485785;26;20026;-55
2024/04/16 02:52:54;;;;;;;4.03;0.73;;;6.50;99.90;;;;;;5477367;26;20443;-38
2024/04/16 02:55:21;;;;;;;2.53;0.40;;;6.50;99.90;;;;;;5451001;26;20459;-39
2024/04/16 02:57:47;;;;;;;0.60;0.22;;;6.50;99.90;;;;;;5460732;26;19994;-40
2024/04/16 03:00:13;;;;;;;1.08;0.47;;;6.40;99.90;;;;;;5489099;26;20004;-38
2024/04/16 03:02:39;;;;;;;10.57;2.03;;;6.40;99.90;;;;;;5491237;26;19997;-38
2024/04/16 03:05:05;;;;;;;5.25;1.92;;;6.40;99.90;;;;;;5491266;26;19995;-37
2024/04/16 03:07:31;;;;;;;2.45;0.60;;;6.50;99.90;;;;;;5489900;26;19994;-36
2024/04/16 03:09:56;;;;;;;7.15;0.80;;;6.50;99.90;;;;;;5490226;26;20172;-36
2024/04/16 03:12:22;;;;;;;4.57;1.02;;;6.50;99.90;;;;;;5490967;26;20024;-35
2024/04/16 03:14:54;;;;;;;5.25;0.93;;;6.50;99.90;;;;;;5490827;26;20328;-36
2024/04/16 03:17:20;;;;;;;4.00;0.73;;;6.50;99.90;;;;;;5491056;26;20005;-37
2024/04/16 03:19:46;;;;;;;0.90;0.80;;;6.50;99.90;;;;;;5488003;26;20531;-64
2024/04/16 03:22:11;;;;;;;4.00;1.05;;;6.50;99.90;;;;;;5490610;26;20006;-36
2024/04/16 03:24:37;;;;;;;2.60;0.55;;;6.60;99.90;;;;;;5490716;26;20074;-36
2024/04/16 03:27:03;;;;;;;2.05;0.68;;;6.60;99.90;;;;;;5479507;26;20009;-38
2024/04/16 03:29:29;;;;;;;3.05;0.50;;;6.60;99.90;;;;;;5454332;26;19995;-36
2024/04/16 03:31:54;;;;;;;9.13;0.98;;;6.60;99.90;;;;;;5463085;26;20005;-36
2024/04/16 03:34:20;;;;;;;1.70;0.70;;;6.60;99.90;;;;;;5490574;26;20006;-40
2024/04/16 03:36:49;;;;;;;3.47;0.88;;;6.60;99.90;;;;;;5490394;26;20515;-36
2024/04/16 03:39:15;;;;;;;1.55;0.30;;;6.60;99.90;;;;;;5490367;26;20002;-38
2024/04/16 03:41:40;;;;;;;6.00;1.17;;;6.60;99.90;;;;;;5490271;26;20061;-37
2024/04/16 03:44:06;;;;;;;8.48;1.23;;;6.60;99.90;;;;;;5478655;26;20002;-36
2024/04/16 03:46:31;;;;;;;5.30;0.75;;;6.60;99.90;;;;;;5467052;26;20030;-36
2024/04/16 03:48:57;;;;;;;3.80;0.93;;;6.60;99.90;;;;;;5490425;26;20433;-34
2024/04/16 03:51:23;;;;;;;6.93;2.25;;;6.60;99.90;;;;;;5491370;26;20005;-51
2024/04/16 03:53:48;;;;;;;5.85;0.85;;;6.60;99.90;;;;;;5490302;26;20030;-48
2024/04/16 03:56:14;;;;;;;4.80;0.85;;;6.60;99.90;;;;;;5490468;26;20005;-46
2024/04/16 03:58:53;;;;;;;3.75;1.23;;;6.60;99.90;;;;;;5488749;26;19998;-42
2024/04/16 04:01:20;;;;;;;5.38;0.70;;;6.50;99.90;;;;;;5486585;26;20067;-51
2024/04/16 04:03:45;;;;;;;8.82;1.05;;;6.50;99.90;;;;;;5488658;26;19994;-44
2024/04/16 04:06:11;;;;;;;7.68;1.25;;;6.60;99.90;;;;;;5489179;26;20002;-47
2024/04/16 04:08:37;;;;;;;18.95;1.70;;;6.60;99.90;;;;;;5488049;26;19998;-41
2024/04/16 04:11:04;;;;;;;3.95;1.23;;;6.70;99.90;;;;;;5490071;26;20010;-47
2024/04/16 04:13:30;;;;;;;2.67;1.05;;;6.70;99.90;;;;;;5490015;26;19995;-45
2024/04/16 04:15:56;;;;;;;3.38;1.08;;;6.60;99.90;;;;;;5490060;26;19994;-43
2024/04/16 04:18:22;;;;;;;4.88;0.98;;;6.50;99.90;;;;;;5489801;26;20066;-44
2024/04/16 04:20:48;;;;;;;1.88;0.47;;;6.50;99.90;;;;;;5489936;26;20002;-60
2024/04/16 04:23:14;;;;;;;8.07;0.82;;;6.50;99.90;;;;;;5489678;26;20009;-44
2024/04/16 04:25:40;;;;;;;2.03;0.80;;;6.40;99.90;;;;;;5490313;26;20450;-43
2024/04/16 04:28:05;;;;;;;2.60;0.73;;;6.40;99.90;;;;;;5489840;26;19998;-49
2024/04/16 04:30:31;;;;;;;7.80;1.52;;;6.40;99.90;;;;;;5513907;26;20048;-48
2024/04/16 04:32:57;;;;;;;1.15;0.60;;;6.40;99.90;;;;;;5526640;26;19997;-46
2024/04/16 04:35:23;;;;;;;2.90;0.63;;;6.40;99.90;;;;;;5507413;26;20010;-51
2024/04/16 04:37:48;;;;;;;1.73;0.60;;;6.40;99.90;;;;;;5489602;26;20006;-46
2024/04/16 04:40:14;;;;;;;4.07;0.40;;;6.40;99.90;;;;;;5489452;26;20006;-44
2024/04/16 04:42:40;;;;;;;2.45;0.35;;;6.40;99.90;;;;;;5489848;26;20008;-44
2024/04/16 04:45:06;;;;;;;5.38;0.38;;;6.30;99.90;;;;;;5489760;26;19994;-49
2024/04/16 04:47:31;;;;;;;1.85;0.38;;;6.30;99.90;;;;;;5489603;26;20045;-51
2024/04/16 04:49:58;;;;;;;4.97;0.50;;;6.40;99.90;;;;;;5489424;26;20336;-51
2024/04/16 04:52:23;;;;;;;0.75;0.30;;;6.40;99.90;;;;;;5481828;26;20012;-51
2024/04/16 04:54:49;;;;;;;2.35;0.32;;;6.40;99.90;;;;;;5489608;26;19994;-50
2024/04/16 04:57:15;;;;;;;8.15;0.77;;;6.40;99.90;;;;;;5489425;26;20446;-48
2024/04/16 04:59:40;;;;;;;3.22;0.32;;;6.40;99.90;;;;;;5487583;26;20022;-44
2024/04/16 05:02:09;;;;;;;3.75;0.30;;;6.50;99.90;;;;;;5483354;26;20435;-50
2024/04/16 05:04:35;;;;;;;4.75;0.52;;;6.50;99.90;;;;;;5452934;26;20475;-44
2024/04/16 05:07:01;;;;;;;4.72;1.83;;;6.50;99.90;;;;;;5470571;26;20356;-50
2024/04/16 05:09:26;;;;;;;4.00;0.70;;;6.50;99.90;;;;;;5488157;26;20009;-50
2024/04/16 05:11:52;;;;;;;5.80;3.30;;;6.60;99.90;;;;;;5489547;26;19998;-49
2024/04/16 05:14:19;;;;;;;6.13;1.30;;;6.60;99.90;;;;;;5489364;26;19994;-45
2024/04/16 05:16:45;;;;;;;5.07;0.90;;;6.70;99.90;;;;;;5487522;26;19994;-50
2024/04/16 05:19:10;;;;;;;9.55;1.45;;;6.80;99.90;;;;;;5487878;26;20008;-47
2024/04/16 05:21:36;;;;;;;5.53;1.35;;;6.80;99.90;;;;;;5488706;26;19994;-48
2024/04/16 05:24:02;;;;;;;10.98;1.58;;;6.90;99.90;;;;;;5488788;26;20538;-50
2024/04/16 05:26:28;;;;;;;8.95;1.75;;;7.00;99.90;;;;;;5487653;26;20006;-50
2024/04/16 05:28:53;;;;;;;18.63;1.77;;;7.10;99.90;;;;;;5488985;26;20002;-52
2024/04/16 05:31:19;;;;;;;12.23;2.13;;;7.20;99.90;;;;;;5488693;26;20547;-47
2024/04/16 05:33:45;;;;;;;11.20;1.80;;;7.30;99.90;;;;;;5488663;26;20327;-49
2024/04/16 05:36:11;;;;;;;15.05;1.85;;;7.40;99.90;;;;;;5488667;26;20288;-46
2024/04/16 05:38:37;;;;;;;10.70;1.60;;;7.40;99.90;;;;;;5488542;26;20013;-44
2024/04/16 05:41:04;;;;;;;4.07;1.85;;;7.40;99.90;;;;;;5486868;26;20410;-49
2024/04/16 05:43:29;;;;;;;17.17;1.77;;;7.50;99.90;;;;;;5487412;26;19994;-52
2024/04/16 05:45:55;;;;;;;11.70;2.67;;;7.50;99.90;;;;;;5488793;26;20013;-47
2024/04/16 05:48:21;;;;;;;13.18;1.50;;;7.60;99.90;;;;;;5487157;26;19994;-50
2024/04/16 05:50:47;;;;;;;5.88;1.23;;;7.60;99.90;;;;;;5486471;26;20315;-51
2024/04/16 05:53:12;;;;;;;6.00;2.05;;;7.60;99.90;;;;;;5467001;26;19999;-46
2024/04/16 05:55:38;;;;;;;5.13;1.88;;;7.70;99.90;;;;;;5450380;26;20549;-51
2024/04/16 05:58:04;;;;;;;10.77;1.33;;;7.70;99.90;;;;;;5451918;26;20439;-34
2024/04/16 06:00:29;;;;;;;8.70;2.78;;;7.80;99.90;;;;;;5453001;26;19999;-34
2024/04/16 06:02:55;;;;;;;14.77;1.85;;;7.80;99.90;;;;;;5476291;26;20385;-34
2024/04/16 06:05:21;;;;;;;6.65;1.23;;;7.90;99.90;;;;;;5451844;26;20011;-33
2024/04/16 06:07:46;;;;;;;8.45;1.73;;;8.00;99.90;;;;;;5479224;26;19994;-33
2024/04/16 06:10:12;;;;;;;4.13;1.52;;;8.10;99.90;;;;;;5488455;26;20401;-50
2024/04/16 06:12:37;;;;;;;19.10;1.92;;;8.20;99.90;;;;;;5488112;26;19998;-51
2024/04/16 06:15:03;;;;;;;8.95;2.03;;;8.20;99.90;;;;;;5488064;26;19999;-50
2024/04/16 06:17:29;;;;;;;12.70;2.03;;;8.30;99.90;;;;;;5486819;26;20006;-51
2024/04/16 06:19:55;;;;;;;8.15;1.20;;;8.40;99.90;;;;;;5484959;26;20070;-44
2024/04/16 06:22:20;;;;;;;3.50;1.48;;;8.40;99.90;;;;;;5487700;26;19994;-47
2024/04/16 06:24:46;;;;;;;13.55;1.13;;;8.40;99.90;;;;;;5485911;26;19998;-49
2024/04/16 06:27:11;;;;;;;13.60;2.15;;;8.40;99.90;;;;;;5488025;26;20375;-50
2024/04/16 06:29:40;;;;;;;13.85;1.85;;;8.50;99.90;;;;;;5486004;26;20013;-46
2024/04/16 06:32:05;;;;;;;10.05;2.05;;;8.50;99.90;;;;;;5491216;26;20382;-49
2024/04/16 06:34:31;;;;;;;11.65;1.63;;;8.60;99.90;;;;;;5489848;26;20010;-48
2024/04/16 06:36:57;;;;;;;9.77;1.38;;;8.50;99.90;;;;;;5490899;26;20013;-49
2024/04/16 06:39:23;;;;;;;7.22;1.30;;;8.50;99.90;;;;;;5491358;26;20458;-51
2024/04/16 06:41:51;;;;;;;10.00;1.48;;;8.50;99.90;;;;;;5491100;26;20013;-45
2024/04/16 06:44:16;;;;;;;;;;;8.50;99.90;;;;;;5492005;26;19995;-49
2024/04/16 06:46:42;;;;;;;16.45;1.85;;;8.40;99.90;;;;;;5491026;26;20253;-47
2024/04/16 06:49:08;;;;;;;6.72;1.52;;;8.40;99.90;;;;;;5490466;26;19994;-50
2024/04/16 06:51:34;;;;;;;22.02;1.85;;;8.30;99.90;;;;;;5489837;26;19991;-43
2024/04/16 06:53:59;;;;;;;19.95;1.88;;;8.30;99.90;;;;;;5458137;26;20335;-51
2024/04/16 06:56:25;;;;;;;8.43;2.55;;;8.30;99.90;;;;;;5476727;26;19994;-49
2024/04/16 06:58:50;;;;;;;12.63;1.63;;;8.40;99.90;;;;;;5491269;26;20016;-52
2024/04/16 07:01:16;;;;;;;10.13;1.33;;;8.40;99.90;;;;;;5491612;26;19998;-54
2024/04/16 07:03:42;;;;;;;4.18;1.23;;;8.40;99.90;;;;;;5471831;26;20015;-48
2024/04/16 07:06:08;;;;;;;8.40;1.48;;;8.40;99.90;;;;;;5467370;26;20028;-48
2024/04/16 07:08:34;;;;;;;14.25;2.05;;;8.40;99.90;;;;;;5471345;26;20435;-47
2024/04/16 07:11:00;;;;;;;9.07;1.83;;;8.40;99.90;;;;;;5453927;26;20010;-49
2024/04/16 07:13:27;;;;;;;8.70;1.65;;;8.40;99.90;;;;;;5459325;26;20032;-50
2024/04/16 07:15:52;;;;;;;12.70;1.90;;;8.40;99.90;;;;;;5519830;26;20494;-50
2024/04/16 07:18:18;;;;;;;9.30;1.48;;;8.50;99.90;;;;;;5490916;26;19994;-49
2024/04/16 07:20:48;;;;;;;6.95;1.73;;;8.50;99.90;;;;;;5490928;26;20029;-51
2024/04/16 07:23:14;;;;;;;12.60;1.52;;;8.50;99.90;;;;;;5490291;26;19994;-49
2024/04/16 07:25:44;;;;;;;9.38;1.35;;;8.60;99.90;;;;;;5489708;26;20379;-51
2024/04/16 07:28:09;;;;;;;7.40;1.40;;;8.70;99.90;;;;;;5490500;26;20026;-49
2024/04/16 07:30:35;;;;;;;7.00;1.35;;;8.80;99.90;;;;;;5487799;26;20005;-48
2024/04/16 07:33:02;;;;;;;9.40;1.35;;;8.80;99.90;;;;;;5490435;26;19994;-45
2024/04/16 07:35:27;;;;;;;7.85;1.65;;;8.80;99.90;;;;;;5490565;26;20066;-43
2024/04/16 07:37:53;;;;;;;9.50;1.90;;;8.90;99.90;;;;;;5490311;26;20476;-51
2024/04/16 07:40:18;;;;;;;13.32;1.88;;;9.00;99.90;;;;;;5490166;26;20005;-49
2024/04/16 07:42:44;;;;;;;10.30;1.63;;;9.10;99.90;;;;;;5488234;26;20319;-54
2024/04/16 07:45:10;;;;;;;15.30;2.08;;;9.10;99.90;;;;;;5490383;26;19994;-51
2024/04/16 07:47:35;;;;;;;6.72;1.50;;;9.20;99.90;;;;;;5490422;26;19996;-50
2024/04/16 07:50:01;;;;;;;8.63;1.52;;;9.20;99.90;;;;;;5489941;26;20026;-51
2024/04/16 07:52:27;;;;;;;17.05;2.55;;;9.10;99.90;;;;;;5490076;26;20083;-48
2024/04/16 07:54:52;;;;;;;11.52;2.70;;;9.10;99.90;;;;;;5490028;26;20322;-46
2024/04/16 07:57:18;;;;;;;13.50;1.60;;;9.10;99.90;;;;;;5489828;26;20005;-48
2024/04/16 07:59:43;;;;;;;8.15;1.60;;;9.10;99.90;;;;;;5467400;26;20005;-49
2024/04/16 08:02:09;;;;;;;7.70;1.40;;;9.10;99.90;;;;;;5453670;26;19990;-50
2024/04/16 08:04:35;;;;;;;11.55;1.33;;;9.10;99.90;;;;;;5453788;26;20056;-65
2024/04/16 08:07:00;;;;;;;8.73;2.17;;;9.00;99.90;;;;;;5453606;26;20416;-37
2024/04/16 08:09:26;;;;;;;16.13;1.98;;;9.00;99.90;;;;;;5453684;26;20002;-37
2024/04/16 08:11:51;;;;;;;19.35;2.17;;;8.80;99.90;;;;;;5453605;26;20344;-39
2024/04/16 08:14:20;;;;;;;7.85;1.50;;;8.80;99.90;;;;;;5468534;26;20023;-40
2024/04/16 08:16:45;;;;;;;6.45;1.67;;;8.80;99.90;;;;;;5490065;26;20438;-39
2024/04/16 08:19:11;;;;;;;9.85;1.10;;;8.70;99.90;;;;;;5490091;26;20004;-39
2024/04/16 08:21:37;;;;;;;4.30;0.60;;;8.30;99.90;;;;;;5489891;26;20002;-39
2024/04/16 08:24:03;;;;;;;7.97;0.65;;;8.00;99.90;;;;;;5486393;26;19995;-36
2024/04/16 08:26:29;;;;;;;4.65;1.48;;;7.80;99.90;;;;;;5489895;26;20544;-36
2024/04/16 08:28:54;;;;;;;3.15;1.58;;;7.70;99.90;;;;;;5489972;26;20034;-37
2024/04/16 08:31:20;;;;;;;7.40;0.98;;;7.80;99.90;;;;;;5481855;26;20044;-53
2024/04/16 08:33:46;;;;;;;2.85;0.80;;;7.80;99.90;;;;;;5474588;26;20406;-50
2024/04/16 08:36:11;;;;;;;4.90;1.25;;;7.80;99.90;;;;;;5489658;26;20005;-51
2024/04/16 08:38:37;;;;;;;10.73;1.60;;;8.00;99.90;;;;;;5489221;26;20022;-48
2024/04/16 08:41:03;;;;;;;11.07;1.48;;;8.10;99.90;;;;;;5489348;26;19998;-51
2024/04/16 08:43:33;;;;;;;8.18;0.93;;;8.30;99.90;;;;;;5487606;26;20348;-47
2024/04/16 08:46:01;;;;;;;7.15;1.30;;;8.50;99.90;;;;;;5489584;26;20568;-51
2024/04/16 08:48:30;;;;;;;;;;;8.50;99.90;;;;;;5490138;26;20459;-47
2024/04/16 08:51:00;;;;;;;7.43;1.45;;;8.50;99.90;;;;;;5485303;26;19947;-52
2024/04/16 08:53:27;;;;;;;8.27;1.50;;;8.70;99.90;;;;;;5474651;25;20002;-51
2024/04/16 08:55:53;;;;;;;6.60;1.08;;;8.90;99.90;;;;;;5465541;26;20452;-49
2024/04/16 08:58:19;;;;;;;10.70;1.48;;;9.10;99.90;;;;;;5452959;26;20435;-51
2024/04/16 09:00:46;;;;;;;10.80;1.55;;;9.30;99.90;;;;;;5452764;26;20006;-50
2024/04/16 09:03:13;;;;;;;13.33;1.70;;;9.40;99.90;;;;;;5452940;26;20461;-45
2024/04/16 09:05:39;;;;;;;3.00;1.38;;;9.50;99.90;;;;;;5468612;26;19990;-52
2024/04/16 09:08:05;;;;;;;4.05;0.88;;;9.30;99.90;;;;;;5487787;26;20443;-49
2024/04/16 09:10:31;;;;;;;6.88;0.98;;;9.40;99.90;;;;;;5489263;26;19990;-48
2024/04/16 09:12:56;;;;;;;5.88;1.30;;;9.30;99.90;;;;;;5488999;26;20327;-53
2024/04/16 09:15:22;;;;;;;7.88;1.33;;;9.40;99.90;;;;;;5487950;26;20323;-49
2024/04/16 09:17:52;;;;;;;13.95;2.03;;;9.60;99.90;;;;;;5489294;26;20463;-53
2024/04/16 09:20:24;;;;;;;8.68;1.52;;;9.60;99.90;;;;;;5489034;26;20013;-51
2024/04/16 09:22:51;;;;;;;8.45;1.92;;;9.70;99.90;;;;;;5485866;26;20002;-50
2024/04/16 09:25:18;;;;;;;4.90;1.33;;;9.90;99.90;;;;;;5488472;26;19998;-47
2024/04/16 09:27:55;;;;;;;7.18;1.13;;;10.10;99.90;;;;;;5488983;26;20467;-51
2024/04/16 09:30:21;;;;;;;7.43;1.05;;;10.10;99.90;;;;;;5487880;26;19998;-42
2024/04/16 09:32:57;;;;;;;3.42;0.52;;;9.90;99.90;;;;;;5488657;26;20447;-49
2024/04/16 09:35:32;;;;;;;2.80;0.88;;;10.00;99.90;;;;;;5488985;26;20009;-50
2024/04/16 09:38:04;;;;;;;5.60;0.57;;;10.00;99.90;;;;;;5488940;26;19998;-48
2024/04/16 09:40:30;;;;;;;9.07;0.85;;;10.00;99.90;;;;;;5486096;26;20443;-37
2024/04/16 09:42:58;;;;;;;5.05;0.45;;;10.30;99.90;;;;;;5452298;26;19998;-36
2024/04/16 09:45:23;;;;;;;1.15;0.47;;;10.50;99.90;;;;;;5452283;26;20026;-37
2024/04/16 09:47:50;;;;;;;0.98;0.82;;;10.60;99.90;;;;;;5452375;26;20022;-35
2024/04/16 09:50:20;;;;;;;2.55;0.70;;;10.60;99.90;;;;;;5478145;26;19994;-35
2024/04/16 09:52:54;;;;;;;10.18;2.05;;;10.50;99.90;;;;;;5488656;26;20006;-38
2024/04/16 09:55:21;;;;;;;1.23;0.35;;;10.80;99.90;;;;;;5488191;26;20327;-38
2024/04/16 09:57:48;;;;;;;1.73;0.68;;;11.30;99.90;;;;;;5481826;26;19998;-37
2024/04/16 10:00:17;;;;;;;1.35;0.50;;;11.60;99.90;;;;;;5452179;26;20443;-37
2024/04/16 10:02:44;;;;;;;4.13;1.33;;;11.40;99.90;;;;;;5468399;26;20371;-36
2024/04/16 10:05:11;;;;;;;5.18;0.77;;;11.30;99.90;;;;;;5487487;26;20063;-35
2024/04/16 10:07:38;;;;;;;1.42;0.60;;;11.30;99.90;;;;;;5486375;26;20070;-39
2024/04/16 10:10:05;;;;;;;5.15;0.47;;;11.20;99.90;;;;;;5488006;26;19998;-36
2024/04/16 10:12:33;;;;;;;9.23;0.73;;;11.40;99.90;;;;;;5485127;26;20005;-40
2024/04/16 10:14:58;;;;;;;4.70;0.45;;;11.40;99.90;;;;;;5486940;26;20006;-37
2024/04/16 10:17:25;;;;;;;5.68;0.63;;;11.20;99.90;;;;;;5488116;26;20338;-45
2024/04/16 10:19:51;;;;;;;2.03;0.40;;;11.30;99.90;;;;;;5488104;26;20435;-58
2024/04/16 10:22:17;;;;;;;3.78;0.60;;;11.50;99.90;;;;;;5488030;26;20474;-43
2024/04/16 10:24:53;;;;;;;2.50;1.20;;;11.70;99.90;;;;;;5488042;26;20046;-40
2024/04/16 10:27:24;;;;;;;7.07;0.50;;;11.50;99.90;;;;;;5488003;26;20006;-40
2024/04/16 10:30:06;;;;;;;1.30;0.85;;;11.90;99.90;;;;;;5487380;26;20013;-38
2024/04/16 10:32:32;;;;;;;1.13;0.20;;;12.30;99.90;;;;;;5467703;26;20063;-37
2024/04/16 10:35:00;;;;;;;3.40;1.02;;;12.40;99.90;;;;;;5451395;26;19995;-41
2024/04/16 10:37:32;;;;;;;5.90;0.70;;;12.30;99.90;;;;;;5462563;26;19994;-39
2024/04/16 10:39:58;;;;;;;2.25;1.08;;;12.20;99.90;;;;;;5487429;26;20511;-39
2024/04/16 10:42:28;;;;;;;2.63;0.65;;;12.20;99.90;;;;;;5487479;26;20006;-42
2024/04/16 10:44:56;;;;;;;5.65;0.80;;;12.20;99.90;;;;;;5487410;26;20071;-49
2024/04/16 10:47:25;;;;;;;3.50;0.95;;;11.90;99.90;;;;;;5487497;26;20208;-71
2024/04/16 10:49:52;;;;;;;5.53;0.68;;;11.80;99.90;;;;;;5464502;26;20472;-53
2024/04/16 10:52:20;;;;;;;1.63;1.00;;;11.60;99.90;;;;;;5451508;26;20011;-42
2024/04/16 10:54:50;;;;;;;6.38;0.60;;;11.40;99.90;;;;;;5451310;26;20006;-48
2024/04/16 10:57:21;;;;;;;1.08;0.35;;;11.10;99.90;;;;;;5451123;26;20444;-52
2024/04/16 10:59:47;;;;;;;5.22;0.40;;;11.00;99.90;;;;;;5451228;26;19995;-49
2024/04/16 11:02:13;;;;;;;1.38;0.70;;;10.90;99.90;;;;;;5451302;26;20522;-43
2024/04/16 11:04:39;;;;;;;0.75;0.40;;;11.10;99.90;;;;;;5471464;26;20006;-45
2024/04/16 11:07:05;;;;;;;6.15;0.80;;;11.60;99.90;;;;;;5486321;26;20014;-49
2024/04/16 11:09:31;;;;;;;7.03;0.70;;;12.00;99.90;;;;;;5487205;26;20324;-43
2024/04/16 11:11:58;;;;;;;3.13;0.65;;;12.30;99.90;;;;;;5487032;26;20002;-45
2024/04/16 11:14:25;;;;;;;1.63;0.38;;;12.10;99.90;;;;;;5486920;26;20450;-45
2024/04/16 11:16:51;;;;;;;5.57;0.70;;;12.00;99.90;;;;;;5488054;26;20431;-41
2024/04/16 11:19:17;;;;;;;5.28;0.70;;;12.10;99.90;;;;;;5490929;26;20005;-44
2024/04/16 11:21:44;;;;;;;3.47;0.30;;;12.10;99.90;;;;;;5490386;26;20351;-45
2024/04/16 11:24:10;;;;;;;1.80;0.80;;;12.40;99.90;;;;;;5489216;26;20067;-47
2024/04/16 11:26:39;;;;;;;1.73;0.43;;;12.70;99.90;;;;;;5471846;26;20006;-48
2024/04/16 11:29:05;;;;;;;3.85;0.70;;;12.90;99.90;;;;;;5454269;26;20492;-45
2024/04/16 11:31:30;;;;;;;2.28;0.50;;;12.50;99.90;;;;;;5454247;26;20007;-48
2024/04/16 11:33:57;;;;;;;1.83;0.40;;;12.00;99.90;;;;;;5454506;26;20019;-47
2024/04/16 11:36:23;;;;;;;0.80;0.47;;;11.80;99.90;;;;;;5454520;26;19999;-50
2024/04/16 11:38:51;;;;;;;8.20;0.93;;;11.60;99.90;;;;;;5477257;26;20119;-49
2024/04/16 11:41:18;;;;;;;5.68;0.55;;;11.50;99.90;;;;;;5489330;26;19998;-47
2024/04/16 11:43:45;;;;;;;2.78;0.40;;;11.30;99.90;;;;;;5490546;26;20066;-50
2024/04/16 11:46:15;;;;;;;2.35;0.57;;;11.30;99.90;;;;;;5490702;26;19998;-44
2024/04/16 11:48:43;;;;;;;4.57;0.77;;;11.50;99.90;;;;;;5490650;26;19998;-47
2024/04/16 11:51:11;;;;;;;1.50;0.77;;;11.70;99.90;;;;;;5490656;26;20447;-55
2024/04/16 11:53:37;;;;;;;2.40;0.65;;;11.90;99.90;;;;;;5490889;26;20446;-50
2024/04/16 11:56:07;;;;;;;6.82;1.05;;;12.10;99.90;;;;;;5490755;26;19998;-47
2024/04/16 11:58:34;;;;;;;4.10;0.95;;;11.90;99.90;;;;;;5489320;26;20458;-49
2024/04/16 12:01:00;;;;;;;11.25;0.88;;;11.90;99.90;;;;;;5490844;26;20008;-49
2024/04/16 12:03:26;;;;;;;1.38;0.65;;;11.90;99.90;;;;;;5490524;26;20002;-45
2024/04/16 12:05:51;;;;;;;0.93;0.50;;;12.10;99.90;;;;;;5490455;26;20072;-48
2024/04/16 12:08:17;;;;;;;10.55;0.80;;;12.00;99.90;;;;;;5490278;26;20005;-58
2024/04/16 12:10:43;;;;;;;2.30;0.80;;;11.80;99.90;;;;;;5490332;26;20063;-49
2024/04/16 12:13:08;;;;;;;1.60;0.57;;;11.80;99.90;;;;;;5489752;26;20006;-52
2024/04/16 12:15:36;;;;;;;2.60;1.00;;;11.80;99.90;;;;;;5462282;26;20002;-53
2024/04/16 12:18:02;;;;;;;;;;;11.80;99.90;;;;;;5490812;26;20508;-41
2024/04/16 12:20:28;;;;;;;6.43;1.23;;;12.00;99.90;;;;;;5490030;26;19924;-48
2024/04/16 12:22:53;;;;;;;3.33;0.80;;;12.00;99.90;;;;;;5489035;26;19994;-48
2024/04/16 12:25:19;;;;;;;6.00;1.10;;;12.00;99.90;;;;;;5453040;26;20342;-45
2024/04/16 12:27:44;;;;;;;5.25;1.08;;;12.20;99.90;;;;;;5489060;26;19994;-48
2024/04/16 12:30:10;;;;;;;7.38;1.40;;;12.00;99.90;;;;;;5489657;26;20005;-46
2024/04/16 12:32:36;;;;;;;2.80;1.02;;;11.80;99.90;;;;;;5465981;26;20323;-43
2024/04/16 12:35:02;;;;;;;2.25;1.38;;;11.80;99.90;;;;;;5489942;26;20005;-50
2024/04/16 12:37:27;;;;;;;4.90;1.08;;;11.70;99.90;;;;;;5489890;26;20439;-48
2024/04/16 12:39:54;;;;;;;5.45;2.30;;;11.70;99.90;;;;;;5489627;26;20006;-51
2024/04/16 12:42:20;;;;;;;8.07;1.52;;;11.70;99.90;;;;;;5489633;26;20005;-51
2024/04/16 12:44:45;;;;;;;4.40;1.13;;;11.50;99.90;;;;;;5490129;26;19994;-44
2024/04/16 12:47:12;;;;;;;13.60;1.73;;;11.40;99.90;;;;;;5489394;26;20005;-47
2024/04/16 12:49:38;;;;;;;13.70;1.42;;;11.30;99.90;;;;;;5455239;26;20002;-57